Aberdeen, Canada
Current Conditions -  °F | °C
As of 10:00 PM on Wednesday 28 Jan 2015 (Local Time) from CYXE Reporting Station
Overcast Overcast  
Wind Chill:   Ceiling: 1500
Heat Index: 18°   Visibility: 15mi
Dew Point: 12°   Wind: 9mph
Humidity: 79%   Direction: 20°NNE
Pressure: 30.38"   Gusts: NA
Location:  52.32°N, 106.28°W
Report Text: CYXE 290400Z 02008KT 15SM OVC015 M08/M11 A3038 RMK SC8 SLP326
Loading
Personal Weather Stations






























Interactive Weather Map New forecast layout! Learn more

10-Day Weather Forecast

Advertisements
Track Severe Weather on mobile